Time;durP1;ratioP1;P1;durP2;ratioP2;P2;SDS_P1;SDS_P2;PMS_P1;PMS_P2;Temp;Humidity;BMP_temperature;BMP_pressure;BME280_temperature;BME280_humidity;BME280_pressure;Samples;Min_cycle;Max_cycle;Signal;HPM_P1;HPM_P2
2022/10/14 04:02:11;;;;;;;27.92;16.55;;;;;;;11.38;82.33;100890.16;5606003;31;77828;-57
2022/10/14 04:05:15;;;;;;;24.60;15.88;;;;;;;11.38;82.33;100890.16;5583471;31;33322;-57
2022/10/14 04:08:18;;;;;;;24.48;16.50;;;;;;;10.91;84.06;100887.84;5588397;31;31992;-57
2022/10/14 04:11:20;;;;;;;24.23;16.75;;;;;;;10.94;83.66;100890.78;5602357;31;33215;-57
2022/10/14 04:14:25;;;;;;;25.65;17.67;;;;;;;10.92;83.66;100884.06;5599648;31;33146;-57
2022/10/14 04:17:27;;;;;;;24.12;17.52;;;;;;;10.98;83.07;100880.31;5598497;31;34056;-58
2022/10/14 04:20:30;;;;;;;21.15;16.12;;;;;;;10.94;83.74;100877.37;5601802;31;33211;-58
2022/10/14 04:23:33;;;;;;;23.48;17.37;;;;;;;11.01;83.01;100871.72;5601235;31;34580;-58
2022/10/14 04:26:36;;;;;;;24.42;16.42;;;;;;;10.92;83.21;100874.13;5601611;31;33136;-57
2022/10/14 04:29:42;;;;;;;22.43;17.17;;;;;;;10.88;83.21;100877.66;5579827;31;33627;-57
2022/10/14 04:32:45;;;;;;;23.15;16.15;;;;;;;10.86;83.27;100875.25;5581704;31;33348;-58
2022/10/14 04:35:48;;;;;;;24.25;16.58;;;;;;;10.81;83.05;100869.88;5582441;32;33278;-58
2022/10/14 04:38:52;;;;;;;24.92;16.77;;;;;;;10.86;82.84;100874.41;5579212;31;33186;-57
2022/10/14 04:41:54;;;;;;;23.50;16.62;;;;;;;10.96;82.65;100877.09;5568440;32;33753;-57
2022/10/14 04:44:57;;;;;;;20.95;16.05;;;;;;;11.00;82.24;100881.66;5571872;32;33288;-58
2022/10/14 04:48:00;;;;;;;27.33;17.90;;;;;;;10.95;82.06;100878.97;5570335;31;32570;-57
2022/10/14 04:51:02;;;;;;;23.87;17.98;;;;;;;10.91;82.41;100874.44;5576453;31;34202;-57
2022/10/14 04:54:06;;;;;;;22.40;16.10;;;;;;;10.95;82.22;100870.91;5576376;31;34200;-57
2022/10/14 04:57:10;;;;;;;27.87;17.62;;;;;;;10.99;81.95;100874.69;5583018;31;31804;-58
2022/10/14 05:00:13;;;;;;;26.37;18.48;;;;;;;11.05;81.73;100880.84;5579463;31;33100;-57
2022/10/14 05:03:16;;;;;;;24.90;18.40;;;;;;;10.98;82.87;100886.47;5580952;31;32582;-58
2022/10/14 05:06:18;;;;;;;27.62;19.00;;;;;;;10.95;83.24;100881.66;5572545;31;33241;-58
2022/10/14 05:09:22;;;;;;;56.92;20.12;;;;;;;11.00;83.23;100883.53;5570920;31;33374;-58
2022/10/14 05:12:25;;;;;;;33.85;19.95;;;;;;;11.10;84.02;100880.03;5570505;31;33154;-57
2022/10/14 05:15:28;;;;;;;31.10;19.87;;;;;;;11.23;83.11;100882.16;5567036;32;33243;-57
2022/10/14 05:18:31;;;;;;;41.65;22.23;;;;;;;11.26;83.89;100885.09;5565320;32;34771;-58
2022/10/14 05:21:33;;;;;;;43.55;23.77;;;;;;;11.38;85.04;100884.78;5562980;31;31768;-57
2022/10/14 05:24:36;;;;;;;61.37;22.65;;;;;;;11.43;84.42;100878.63;5564741;32;33209;-58
2022/10/14 05:27:38;;;;;;;33.08;21.87;;;;;;;11.53;84.81;100887.44;5565637;31;33381;-57
2022/10/14 05:30:41;;;;;;;31.90;22.45;;;;;;;11.55;84.87;100897.87;5559930;32;34439;-58
2022/10/14 05:33:44;;;;;;;38.55;22.10;;;;;;;11.52;85.68;100903.81;5565444;32;33772;-58
2022/10/14 05:36:47;;;;;;;36.22;22.42;;;;;;;11.50;85.99;100889.88;5565396;31;33739;-57
2022/10/14 05:39:50;;;;;;;44.28;24.15;;;;;;;11.58;85.90;100891.19;5567313;32;34349;-57
2022/10/14 05:42:52;;;;;;;45.30;27.30;;;;;;;11.58;85.70;100891.97;5566571;32;33389;-58
2022/10/14 05:45:55;;;;;;;52.20;27.25;;;;;;;11.67;85.79;100890.34;5563115;31;32500;-57
2022/10/14 05:48:59;;;;;;;50.65;26.50;;;;;;;11.71;86.53;100890.59;5564801;32;33610;-57
2022/10/14 05:52:01;;;;;;;49.67;25.90;;;;;;;11.82;85.54;100899.41;5565224;32;33644;-57
2022/10/14 05:55:05;;;;;;;43.45;24.20;;;;;;;11.79;86.20;100905.31;5567205;31;33054;-58
2022/10/14 05:58:08;;;;;;;35.67;26.08;;;;;;;11.85;86.43;100897.00;5564564;32;33387;-58
2022/10/14 06:01:11;;;;;;;65.12;27.70;;;;;;;11.93;87.21;100903.69;5557221;31;33539;-57
2022/10/14 06:04:19;;;;;;;43.08;26.15;;;;;;;12.09;87.08;100909.81;5561260;32;35063;-57
2022/10/14 06:07:21;;;;;;;40.72;25.90;;;;;;;12.12;87.15;100912.75;5562246;32;33695;-57
2022/10/14 06:10:23;;;;;;;33.50;24.85;;;;;;;12.14;87.19;100904.38;5567166;32;33630;-58
2022/10/14 06:13:25;;;;;;;39.80;25.15;;;;;;;12.19;87.17;100917.81;5567578;32;33584;-58
2022/10/14 06:16:28;;;;;;;44.00;26.15;;;;;;;12.33;87.67;100912.63;5566352;31;32748;-57
2022/10/14 06:19:31;;;;;;;35.08;24.00;;;;;;;12.36;86.48;100920.91;5567087;32;34267;-57
2022/10/14 06:22:33;;;;;;;38.53;23.87;;;;;;;12.57;84.62;100918.87;5561769;32;34288;-58
2022/10/14 06:25:35;;;;;;;36.08;23.40;;;;;;;12.65;85.05;100915.63;5560435;32;34292;-58
2022/10/14 06:28:38;;;;;;;35.00;22.55;;;;;;;12.81;83.99;100915.47;5567542;31;34194;-58
2022/10/14 06:31:40;;;;;;;37.05;23.60;;;;;;;12.74;83.40;100923.06;5564623;32;33647;-57
2022/10/14 06:34:42;;;;;;;33.17;23.35;;;;;;;12.80;83.87;100922.75;5564704;32;33543;-58
2022/10/14 06:37:45;;;;;;;37.67;23.02;;;;;;;12.88;83.01;100922.16;5564081;32;33793;-58
2022/10/14 06:40:50;;;;;;;65.40;24.15;;;;;;;12.94;82.53;100929.09;5563866;32;34311;-58
2022/10/14 06:43:53;;;;;;;35.20;22.58;;;;;;;12.97;82.61;100926.91;5564683;32;34249;-58
2022/10/14 06:46:56;;;;;;;41.80;24.12;;;;;;;13.03;82.13;100931.19;5567146;32;33196;-57
2022/10/14 06:49:58;;;;;;;36.30;23.17;;;;;;;13.09;82.08;100933.53;5568528;32;33863;-58
2022/10/14 06:53:01;;;;;;;40.90;23.70;;;;;;;13.09;83.89;100930.06;5566299;32;33391;-58
2022/10/14 06:56:05;;;;;;;34.95;24.17;;;;;;;13.14;83.16;100933.50;5566376;32;34383;-58
2022/10/14 06:59:07;;;;;;;32.63;23.70;;;;;;;13.22;82.96;100936.66;5560590;32;33698;-58
2022/10/14 07:02:09;;;;;;;32.88;24.50;;;;;;;13.25;82.16;100934.25;5563698;32;34244;-57
2022/10/14 07:05:12;;;;;;;38.58;24.73;;;;;;;13.24;84.01;100932.59;5559995;32;34444;-57
2022/10/14 07:08:14;;;;;;;37.05;24.05;;;;;;;13.40;82.35;100938.66;5564208;32;34300;-58
2022/10/14 07:11:17;;;;;;;32.92;23.62;;;;;;;13.39;82.33;100940.56;5566741;32;34455;-58
2022/10/14 07:14:19;;;;;;;36.92;23.40;;;;;;;13.42;81.55;100927.63;5568230;32;34083;-58
2022/10/14 07:17:21;;;;;;;33.40;23.90;;;;;;;13.53;80.76;100945.25;5566778;32;31905;-58
2022/10/14 07:20:24;;;;;;;33.83;23.58;;;;;;;13.72;80.01;100935.34;5566551;32;33261;-57
2022/10/14 07:23:26;;;;;;;35.83;22.85;;;;;;;13.71;79.57;100936.44;5566827;32;33584;-58
2022/10/14 07:26:30;;;;;;;32.92;23.10;;;;;;;13.72;79.05;100929.97;5567835;32;33882;-58
2022/10/14 07:29:32;;;;;;;35.65;22.52;;;;;;;13.74;79.60;100930.50;5563477;31;33697;-57
2022/10/14 07:32:35;;;;;;;33.75;22.25;;;;;;;13.85;78.84;100929.25;5567502;32;33136;-58
2022/10/14 07:35:38;;;;;;;28.75;20.05;;;;;;;13.97;77.96;100930.72;5566638;32;33593;-58
2022/10/14 07:38:41;;;;;;;31.02;21.10;;;;;;;14.07;76.85;100936.81;5566288;32;33534;-58
2022/10/14 07:41:43;;;;;;;30.42;22.50;;;;;;;14.06;76.05;100935.19;5567525;32;33569;-57
2022/10/14 07:44:45;;;;;;;33.92;22.05;;;;;;;14.12;75.38;100935.13;5565658;32;32314;-58
2022/10/14 07:47:49;;;;;;;30.42;21.65;;;;;;;14.19;74.83;100930.97;5563283;32;33693;-58
2022/10/14 07:50:52;;;;;;;32.33;21.05;;;;;;;14.19;75.10;100927.47;5568381;32;33662;-58
2022/10/14 07:53:56;;;;;;;32.20;21.50;;;;;;;14.29;74.97;100924.63;5566956;32;34264;-58
2022/10/14 07:56:58;;;;;;;28.95;20.65;;;;;;;14.30;75.54;100923.53;5566718;32;33101;-58
2022/10/14 08:00:02;;;;;;;27.00;21.35;;;;;;;14.43;74.97;100924.72;5564428;32;33287;-58
2022/10/14 08:03:12;;;;;;;29.15;21.20;;;;;;;14.47;74.31;100917.63;5566413;32;33922;-58
2022/10/14 08:06:15;;;;;;;30.20;22.55;;;;;;;14.44;74.22;100919.03;5566356;32;33673;-58
2022/10/14 08:09:18;;;;;;;31.70;22.13;;;;;;;14.51;73.84;100919.50;5566920;32;34183;-58
2022/10/14 08:12:21;;;;;;;35.90;21.92;;;;;;;14.68;72.61;100920.88;5566929;32;33620;-58
2022/10/14 08:15:27;;;;;;;38.00;22.27;;;;;;;14.64;73.24;100915.25;5564311;32;33650;-58
2022/10/14 08:18:29;;;;;;;29.10;19.85;;;;;;;14.75;72.95;100910.47;5559789;32;34243;-58
2022/10/14 08:21:32;;;;;;;30.70;20.10;;;;;;;14.78;72.04;100904.50;5562892;32;34313;-58
2022/10/14 08:24:36;;;;;;;27.70;19.52;;;;;;;14.86;71.81;100914.59;5563628;32;33607;-58
2022/10/14 08:27:38;;;;;;;30.05;19.17;;;;;;;14.98;70.73;100914.16;5563734;32;33589;-58
2022/10/14 08:30:41;;;;;;;28.42;18.50;;;;;;;15.09;70.27;100906.66;5566767;32;34376;-58
2022/10/14 08:33:43;;;;;;;29.40;21.23;;;;;;;15.07;71.12;100904.28;5563618;32;33780;-58
2022/10/14 08:36:50;;;;;;;31.23;20.67;;;;;;;15.06;70.95;100904.56;5563229;32;34289;-58
2022/10/14 08:39:52;;;;;;;29.67;20.40;;;;;;;15.16;70.90;100901.69;5559189;32;33745;-58
2022/10/14 08:43:00;;;;;;;34.35;21.17;;;;;;;15.25;70.88;100891.78;5558262;32;33607;-58
2022/10/14 08:46:30;;;;;;;29.20;21.85;;;;;;;15.24;71.71;100890.19;5562694;32;33734;-58
2022/10/14 08:49:48;;;;;;;33.50;21.08;;;;;;;15.38;70.58;100895.59;5556002;32;34341;-58
2022/10/14 08:53:04;;;;;;;37.05;23.95;;;;;;;15.39;71.24;100895.28;5563587;32;34189;-58
2022/10/14 08:56:10;;;;;;;36.15;22.58;;;;;;;15.47;70.25;100894.59;5566982;32;33737;-58
2022/10/14 08:59:18;;;;;;;40.53;23.30;;;;;;;15.54;69.82;100890.72;5566233;32;33376;-58
2022/10/14 09:02:47;;;;;;;32.08;20.30;;;;;;;15.51;69.98;100892.09;5564165;32;34331;-58
2022/10/14 09:06:03;;;;;;;29.45;20.30;;;;;;;15.57;69.31;100890.91;5561145;32;34244;-58
2022/10/14 09:09:21;;;;;;;28.00;20.50;;;;;;;15.63;68.73;100888.88;5561527;32;34388;-58
2022/10/14 09:12:28;;;;;;;27.70;20.05;;;;;;;15.65;69.36;100900.19;5567073;32;34294;-58
2022/10/14 09:15:38;;;;;;;32.33;21.52;;;;;;;15.63;69.36;100892.41;5564303;32;34324;-58
2022/10/14 09:18:45;;;;;;;34.97;21.00;;;;;;;15.69;69.25;100898.53;5567745;32;33309;-58
2022/10/14 09:21:54;;;;;;;33.05;21.70;;;;;;;15.66;70.32;100902.66;5564027;32;33215;-58
2022/10/14 09:24:57;;;;;;;30.42;21.73;;;;;;;15.67;70.14;100898.03;5563582;32;33974;-58
2022/10/14 09:27:59;;;;;;;34.47;22.37;;;;;;;15.72;70.10;100897.91;5568234;32;34347;-58
2022/10/14 09:31:03;;;;;;;33.95;21.52;;;;;;;15.82;68.44;100886.09;5565645;32;33757;-58
2022/10/14 09:34:12;;;;;;;35.97;22.98;;;;;;;15.87;69.43;100900.31;5567512;32;33603;-58
2022/10/14 09:37:35;;;;;;;32.17;22.77;;;;;;;16.02;68.34;100896.47;5564288;31;34130;-58
2022/10/14 09:40:48;;;;;;;32.15;22.70;;;;;;;15.90;70.16;100897.00;5563056;32;34341;-58
2022/10/14 09:44:13;;;;;;;39.97;21.83;;;;;;;15.93;70.16;100895.63;5562492;32;33683;-58
2022/10/14 09:47:18;;;;;;;30.35;21.85;;;;;;;16.13;69.12;100895.16;5565643;32;34377;-57
2022/10/14 09:50:33;;;;;;;32.22;21.95;;;;;;;16.05;68.89;100893.16;5564680;32;33112;-58
2022/10/14 09:53:41;;;;;;;49.60;23.95;;;;;;;16.04;69.46;100894.28;5568997;32;34359;-58
2022/10/14 09:56:46;;;;;;;67.72;24.25;;;;;;;16.03;69.63;100889.97;5564205;32;33099;-58
2022/10/14 09:59:55;;;;;;;40.72;21.42;;;;;;;16.11;70.05;100888.44;5568847;32;33772;-58
2022/10/14 10:02:57;;;;;;;33.92;22.50;;;;;;;16.18;70.48;100886.12;5566606;32;33928;-58
2022/10/14 10:06:05;;;;;;;34.85;22.10;;;;;;;16.23;69.43;100882.53;5563046;32;33025;-58
2022/10/14 10:09:17;;;;;;;69.55;24.50;;;;;;;16.28;69.35;100885.88;5565868;32;33912;-58
2022/10/14 10:12:22;;;;;;;137.43;27.17;;;;;;;16.37;70.13;100886.75;5562771;31;33713;-58
2022/10/14 10:15:24;;;;;;;90.82;23.75;;;;;;;16.37;71.98;100883.25;5567404;32;33630;-58
2022/10/14 10:18:27;;;;;;;33.38;20.48;;;;;;;16.42;70.97;100880.41;5557997;32;33716;-58
2022/10/14 10:21:29;;;;;;;29.10;20.98;;;;;;;16.49;70.62;100880.81;5554327;32;33938;-58
2022/10/14 10:24:33;;;;;;;34.92;21.15;;;;;;;16.64;69.07;100882.34;5561086;32;34090;-58
2022/10/14 10:27:38;;;;;;;32.25;20.45;;;;;;;16.68;69.35;100873.28;5565423;32;34503;-58
2022/10/14 10:30:56;;;;;;;35.25;19.87;;;;;;;16.63;70.67;100870.72;5562353;32;33103;-58
2022/10/14 10:34:17;;;;;;;30.40;20.00;;;;;;;16.63;70.68;100876.12;5561555;32;33802;-58
2022/10/14 10:37:26;;;;;;;28.77;20.75;;;;;;;16.79;69.79;100870.38;5566758;32;33904;-58
2022/10/14 10:40:33;;;;;;;26.48;19.65;;;;;;;16.76;69.84;100860.94;5567816;32;33795;-58
2022/10/14 10:43:44;;;;;;;28.92;18.20;;;;;;;16.78;69.86;100858.72;5559445;32;34315;-58
2022/10/14 10:47:12;;;;;;;26.12;18.12;;;;;;;16.79;69.95;100854.91;5565336;32;33807;-58
2022/10/14 10:50:29;;;;;;;26.70;18.58;;;;;;;16.83;70.45;100850.47;5568007;32;33675;-58
2022/10/14 10:53:54;;;;;;;29.45;18.52;;;;;;;16.92;69.98;100847.81;5567103;32;33564;-58
2022/10/14 10:57:17;;;;;;;32.83;17.67;;;;;;;16.92;69.46;100845.12;5564174;32;33682;-58
2022/10/14 11:00:22;;;;;;;23.62;17.10;;;;;;;16.95;69.84;100846.38;5564474;32;32209;-58
2022/10/14 11:03:52;;;;;;;23.77;17.95;;;;;;;17.10;68.37;100843.28;5566074;32;34345;-58
2022/10/14 11:14:45;;;;;;;30.77;18.50;;;;;;;17.10;69.41;100829.72;5566737;32;34234;-58
2022/10/14 11:18:13;;;;;;;31.17;18.40;;;;;;;17.17;68.38;100831.97;5567198;32;34367;-58
2022/10/14 11:21:29;;;;;;;64.55;19.87;;;;;;;17.22;68.05;100829.94;5566613;32;33720;-58
2022/10/14 11:24:57;;;;;;;24.50;18.37;;;;;;;17.33;68.81;100827.75;5565995;32;33279;-58
2022/10/14 11:28:14;;;;;;;25.02;17.60;;;;;;;17.36;67.16;100827.09;5563768;32;33461;-58
2022/10/14 11:31:32;;;;;;;27.50;17.75;;;;;;;17.35;66.60;100820.06;5566566;32;34315;-58
2022/10/14 11:34:42;;;;;;;23.80;17.77;;;;;;;17.36;66.75;100811.66;5565854;32;33326;-58
2022/10/14 11:38:03;;;;;;;27.52;18.42;;;;;;;17.33;66.96;100812.28;5568436;32;33352;-58
2022/10/14 11:41:17;;;;;;;32.95;18.77;;;;;;;17.44;66.32;100812.78;5548221;32;33812;-58
2022/10/14 11:44:34;;;;;;;24.60;17.67;;;;;;;17.43;65.55;100805.75;5547612;32;32325;-58
2022/10/14 11:47:45;;;;;;;27.90;17.50;;;;;;;17.37;66.36;100798.88;5550774;32;33452;-58
2022/10/14 11:50:55;;;;;;;26.70;17.95;;;;;;;17.38;66.23;100795.88;5564686;32;34297;-58
2022/10/14 11:54:13;;;;;;;29.45;18.15;;;;;;;17.54;65.13;100788.06;5567178;32;34532;-58
2022/10/14 11:57:32;;;;;;;22.10;17.65;;;;;;;17.49;65.25;100792.87;5567179;32;34336;-58
2022/10/14 12:00:35;;;;;;;24.17;18.20;;;;;;;17.51;65.63;100787.91;5564721;32;33200;-58
2022/10/14 12:03:49;;;;;;;23.73;17.70;;;;;;;17.54;66.62;100787.28;5567960;32;33844;-58
2022/10/14 12:07:02;;;;;;;23.50;17.70;;;;;;;17.54;67.29;100787.28;5567177;32;33962;-58
2022/10/14 12:10:28;;;;;;;24.10;17.95;;;;;;;17.53;67.19;100786.47;5567958;32;33797;-58
2022/10/14 12:13:40;;;;;;;25.67;18.62;;;;;;;17.60;66.16;100778.69;5568155;32;34056;-58
2022/10/14 12:16:46;;;;;;;27.48;18.50;;;;;;;17.57;66.26;100783.94;5567464;32;33729;-58
2022/10/14 12:19:50;;;;;;;25.15;19.48;;;;;;;17.60;65.42;100778.69;5566584;32;34373;-58
2022/10/14 12:22:55;;;;;;;25.62;20.00;;;;;;;17.59;66.55;100774.38;5556594;32;33706;-58
2022/10/14 12:26:23;;;;;;;29.08;21.80;;;;;;;17.59;66.94;100773.59;5550587;32;34356;-58
2022/10/14 12:29:48;;;;;;;28.92;22.02;;;;;;;17.72;66.82;100764.50;5547141;32;34272;-58
2022/10/14 12:33:08;;;;;;;32.30;22.20;;;;;;;17.72;66.10;100763.72;5550586;32;34286;-58
2022/10/14 12:36:30;;;;;;;28.30;21.73;;;;;;;17.67;66.02;100758.44;5563804;32;34410;-58
2022/10/14 12:39:33;;;;;;;27.17;21.95;;;;;;;17.60;66.93;100758.91;5570071;32;33746;-58
2022/10/14 12:42:59;;;;;;;27.27;21.80;;;;;;;17.58;67.13;100753.00;5569710;32;34433;-58
2022/10/14 12:46:13;;;;;;;28.65;22.37;;;;;;;17.59;67.62;100751.91;5569307;32;33819;-58
2022/10/14 12:49:45;;;;;;;26.67;23.17;;;;;;;17.68;66.64;100747.28;5569239;32;33925;-58
2022/10/14 12:52:56;;;;;;;28.10;21.37;;;;;;;17.76;66.30;100745.69;5569230;32;33883;-58
2022/10/14 12:56:03;;;;;;;27.50;22.15;;;;;;;17.79;66.59;100743.16;5569939;32;34406;-58
2022/10/14 12:59:08;;;;;;;44.40;21.58;;;;;;;17.75;66.08;100739.47;5569181;32;33401;-58
2022/10/14 13:02:24;;;;;;;32.50;22.27;;;;;;;17.78;67.37;100740.75;5570376;32;33873;-58
2022/10/14 13:05:36;;;;;;;35.60;21.80;;;;;;;17.95;65.25;100742.69;5570418;32;34024;-58
2022/10/14 13:08:39;;;;;;;32.33;21.48;;;;;;;17.96;65.48;100741.56;5570372;32;34510;-58
2022/10/14 13:11:45;;;;;;;30.50;22.87;;;;;;;17.97;65.69;100741.22;5570173;32;34281;-58
2022/10/14 13:15:29;;;;;;;27.98;22.17;;;;;;;17.96;65.45;100745.06;5569916;32;34399;-58
2022/10/14 13:18:42;;;;;;;30.90;22.13;;;;;;;17.94;65.56;100741.84;5568009;32;31643;-58
2022/10/14 13:21:44;;;;;;;27.35;21.50;;;;;;;17.90;66.23;100730.06;5569347;32;34497;-58
2022/10/14 13:24:46;;;;;;;28.23;22.20;;;;;;;17.99;65.71;100738.19;5569137;32;34371;-58
2022/10/14 13:27:54;;;;;;;26.25;20.83;;;;;;;18.01;64.84;100727.81;5569978;31;33579;-58
2022/10/14 13:31:09;;;;;;;31.37;21.60;;;;;;;18.04;67.18;100730.66;5570179;32;33197;-58
2022/10/14 13:34:25;;;;;;;37.83;22.50;;;;;;;17.94;66.49;100732.94;5557085;32;33644;-58
2022/10/14 13:37:51;;;;;;;39.47;23.20;;;;;;;17.85;67.55;100727.53;5549572;32;33644;-58
2022/10/14 13:40:56;;;;;;;29.63;21.33;;;;;;;17.89;66.48;100730.41;5550415;32;33739;-58
2022/10/14 13:43:59;;;;;;;57.55;22.83;;;;;;;17.79;67.05;100731.50;5549184;32;33713;-58
2022/10/14 13:47:02;;;;;;;30.42;22.08;;;;;;;17.78;68.01;100727.19;5550455;32;33731;-58
2022/10/14 13:50:05;;;;;;;40.80;23.67;;;;;;;17.75;67.93;100716.97;5550101;32;33875;-58
2022/10/14 13:53:19;;;;;;;38.08;24.63;;;;;;;17.73;67.94;100720.00;5561092;32;34029;-58
2022/10/14 13:56:31;;;;;;;36.45;22.35;;;;;;;17.72;67.18;100714.91;5569744;32;33993;-58
2022/10/14 13:59:39;;;;;;;80.95;26.55;;;;;;;17.73;68.29;100717.28;5569148;32;33653;-58
2022/10/14 14:03:20;;;;;;;48.63;22.98;;;;;;;17.80;68.00;100714.13;5569350;32;33800;-58
2022/10/14 14:06:25;;;;;;;33.85;23.27;;;;;;;17.78;69.37;100710.91;5569154;32;34460;-58
2022/10/14 14:09:32;;;;;;;27.35;21.02;;;;;;;17.89;66.77;100705.97;5569340;32;33677;-58
2022/10/14 14:12:34;;;;;;;35.25;22.00;;;;;;;17.93;66.59;100704.22;5569332;32;34361;-58
2022/10/14 14:15:37;;;;;;;48.87;23.17;;;;;;;17.90;66.39;100702.16;5569375;32;33845;-58
2022/10/14 14:18:47;;;;;;;31.58;22.30;;;;;;;17.86;67.28;100698.50;5569567;32;34419;-58
2022/10/14 14:22:26;;;;;;;29.15;22.17;;;;;;;17.91;67.18;100698.31;5569632;32;33708;-58
2022/10/14 14:25:30;;;;;;;37.67;22.08;;;;;;;17.89;67.70;100697.84;5569605;32;33643;-58
2022/10/14 14:28:37;;;;;;;28.10;23.33;;;;;;;17.88;66.82;100693.53;5569138;31;33773;-58
2022/10/14 14:31:39;;;;;;;31.42;22.25;;;;;;;17.89;67.35;100689.72;5569566;32;34448;-58
2022/10/14 14:35:05;;;;;;;32.00;22.90;;;;;;;17.86;66.87;100696.56;5569365;32;33490;-58
2022/10/14 14:38:24;;;;;;;;;;;;;;;17.81;67.54;100702.16;5569471;32;33695;-58
2022/10/14 14:41:29;;;;;;;26.87;22.65;;;;;;;17.83;67.57;100695.28;5569521;32;33980;-58
2022/10/14 14:44:33;;;;;;;29.25;22.62;;;;;;;17.78;67.75;100700.91;5567495;32;34445;-58
2022/10/14 14:47:35;;;;;;;28.98;22.40;;;;;;;17.76;68.34;100697.69;5565525;32;34321;-58
2022/10/14 14:50:42;;;;;;;27.27;21.80;;;;;;;17.73;68.17;100698.31;5564762;32;33635;-58
2022/10/14 14:53:48;;;;;;;50.55;23.08;;;;;;;17.74;66.77;100696.38;5566191;32;35376;-58
2022/10/14 14:57:01;;;;;;;25.30;21.75;;;;;;;17.74;68.06;100697.19;5568679;32;33729;-58
2022/10/14 15:00:05;;;;;;;31.05;23.25;;;;;;;17.75;68.17;100696.06;5567778;32;33722;-58
2022/10/14 15:03:08;;;;;;;33.03;23.50;;;;;;;17.77;68.98;100695.78;5567877;32;33864;-58
2022/10/14 15:06:15;;;;;;;35.20;23.60;;;;;;;17.80;68.30;100687.00;5569228;32;33615;-58
2022/10/14 15:09:23;;;;;;;30.50;22.73;;;;;;;17.76;67.39;100680.59;5569313;32;33637;-58
2022/10/14 15:12:29;;;;;;;28.98;23.35;;;;;;;17.73;68.48;100682.03;5568968;32;33627;-58
2022/10/14 15:15:33;;;;;;;30.35;23.77;;;;;;;17.75;68.85;100687.94;5569412;32;33712;-58
2022/10/14 15:18:41;;;;;;;30.85;25.35;;;;;;;17.73;69.03;100694.81;5569069;32;34522;-58
2022/10/14 15:21:47;;;;;;;33.08;25.77;;;;;;;17.69;69.02;100680.28;5569130;32;33719;-58
2022/10/14 15:25:26;;;;;;;32.30;24.30;;;;;;;17.66;68.07;100684.44;5569204;32;33489;-58
2022/10/14 15:28:30;;;;;;;28.83;23.08;;;;;;;17.68;68.94;100687.63;5567541;31;33727;-58
2022/10/14 15:31:35;;;;;;;30.62;23.40;;;;;;;17.64;70.28;100681.25;5567856;32;33624;-58
2022/10/14 15:34:37;;;;;;;41.35;23.65;;;;;;;17.56;70.59;100690.19;5568980;32;33745;-58
2022/10/14 15:37:39;;;;;;;36.58;25.33;;;;;;;17.53;70.71;100688.91;5568916;32;33698;-58
